createdAt,value
2022-11-28T00:00:17.099Z,65.40
2022-11-28T00:02:47.471Z,65.30
2022-11-28T00:05:17.745Z,65.30
2022-11-28T00:07:48.030Z,65.20
2022-11-28T00:10:18.257Z,65.20
2022-11-28T00:12:48.490Z,65.20
2022-11-28T00:15:18.769Z,65.20
2022-11-28T00:17:48.966Z,65.30
2022-11-28T00:20:19.212Z,65.20
2022-11-28T00:22:49.379Z,65.20
2022-11-28T00:25:19.744Z,65.20
2022-11-28T00:27:49.941Z,65.10
2022-11-28T00:30:20.268Z,65.10
2022-11-28T00:32:50.508Z,65.00
2022-11-28T00:35:20.795Z,65.10
2022-11-28T00:37:51.064Z,65.00
2022-11-28T00:40:21.390Z,65.00
2022-11-28T00:42:51.826Z,65.00
2022-11-28T00:45:22.032Z,65.70
2022-11-28T00:47:52.273Z,64.90
2022-11-28T00:50:22.506Z,64.90
2022-11-28T00:52:52.758Z,64.80
2022-11-28T00:55:22.930Z,64.80
2022-11-28T00:57:53.247Z,64.70
2022-11-28T01:00:23.988Z,64.60
2022-11-28T01:02:54.308Z,64.60
2022-11-28T01:05:24.541Z,64.50
2022-11-28T01:07:55.013Z,64.50
2022-11-28T01:10:25.470Z,64.40
2022-11-28T01:12:55.783Z,64.40
2022-11-28T01:15:26.059Z,64.40
2022-11-28T01:17:56.324Z,64.30
2022-11-28T01:20:26.514Z,64.30
2022-11-28T01:22:56.845Z,64.30
2022-11-28T01:25:27.224Z,64.30
2022-11-28T01:27:57.528Z,64.30
2022-11-28T01:30:27.823Z,64.40
2022-11-28T01:32:58.234Z,64.30
2022-11-28T01:35:28.854Z,64.30
2022-11-28T01:37:59.236Z,64.40
2022-11-28T01:40:29.512Z,64.30
2022-11-28T01:42:59.812Z,64.30
2022-11-28T01:45:34.559Z,64.30
2022-11-28T01:48:06.152Z,64.30
2022-11-28T01:50:37.267Z,64.40
2022-11-28T01:53:12.673Z,64.40
2022-11-28T01:56:11.630Z,64.30
2022-11-28T01:58:46.537Z,64.10
2022-11-28T02:01:17.592Z,64.30
2022-11-28T02:03:50.861Z,64.30
2022-11-28T02:06:24.396Z,64.20
2022-11-28T02:08:58.174Z,64.10
2022-11-28T02:11:58.376Z,64.20
2022-11-28T02:14:52.581Z,64.00
2022-11-28T02:17:46.939Z,64.00
2022-11-28T02:20:34.968Z,64.00
2022-11-28T02:23:31.251Z,64.00
2022-11-28T02:26:13.443Z,64.10
2022-11-28T02:29:11.749Z,64.00
2022-11-28T02:32:08.908Z,63.90
2022-11-28T02:35:17.582Z,64.00
2022-11-28T02:37:47.783Z,64.00
2022-11-28T02:40:30.254Z,64.00
2022-11-28T02:43:15.041Z,64.00
2022-11-28T02:45:53.605Z,64.10
2022-11-28T02:48:23.840Z,63.90
2022-11-28T02:51:03.934Z,64.00
2022-11-28T02:53:36.318Z,63.80
2022-11-28T02:56:07.226Z,63.80
2022-11-28T02:58:38.480Z,63.90
2022-11-28T03:01:18.551Z,63.80
2022-11-28T03:04:02.839Z,63.70
2022-11-28T03:06:56.337Z,63.60
2022-11-28T03:10:10.740Z,63.40
2022-11-28T03:13:00.703Z,63.40
2022-11-28T03:16:15.015Z,63.50
2022-11-28T03:18:56.308Z,63.40
2022-11-28T03:21:32.527Z,63.50
2022-11-28T03:24:27.352Z,63.50
2022-11-28T03:27:10.289Z,63.30
2022-11-28T03:29:48.059Z,63.30
2022-11-28T03:32:32.687Z,63.30
2022-11-28T03:35:12.248Z,63.20
2022-11-28T03:37:49.515Z,63.20
2022-11-28T03:40:25.498Z,63.20
2022-11-28T03:43:05.798Z,63.10
2022-11-28T03:45:58.955Z,63.10
2022-11-28T03:48:47.600Z,63.10
2022-11-28T03:51:22.928Z,63.10
2022-11-28T03:54:16.462Z,63.10
2022-11-28T03:56:59.693Z,63.10
2022-11-28T03:59:39.918Z,63.00
2022-11-28T04:02:45.559Z,62.90
2022-11-28T04:05:33.040Z,63.00
2022-11-28T04:08:25.044Z,63.00
2022-11-28T04:11:15.899Z,62.90
2022-11-28T04:14:02.944Z,62.80
2022-11-28T04:16:53.975Z,62.80
2022-11-28T04:19:32.082Z,62.70
2022-11-28T04:22:19.234Z,62.90
2022-11-28T04:24:57.020Z,62.90
2022-11-28T04:27:31.755Z,63.10
2022-11-28T04:30:05.020Z,63.20
2022-11-28T04:32:39.855Z,63.20
2022-11-28T04:35:26.630Z,63.10
2022-11-28T04:37:58.462Z,63.00
2022-11-28T04:40:32.665Z,63.10
2022-11-28T04:43:10.539Z,63.10
2022-11-28T04:45:49.921Z,63.20
2022-11-28T04:48:21.009Z,63.10
2022-11-28T04:51:08.296Z,63.20
2022-11-28T04:54:09.723Z,63.20
2022-11-28T04:56:49.805Z,63.20
2022-11-28T04:59:22.442Z,63.20
2022-11-28T05:01:53.412Z,63.20
2022-11-28T05:04:23.823Z,63.30
2022-11-28T05:07:02.924Z,63.30
2022-11-28T05:09:33.180Z,63.30
2022-11-28T05:12:03.494Z,63.20
2022-11-28T05:14:33.912Z,63.20
2022-11-28T05:17:04.160Z,63.10
2022-11-28T05:19:34.381Z,63.10
2022-11-28T05:22:04.568Z,63.10
2022-11-28T05:24:34.724Z,63.10
2022-11-28T05:27:05.213Z,63.10
2022-11-28T05:29:36.225Z,63.00
2022-11-28T05:32:06.958Z,63.00
2022-11-28T05:34:37.735Z,63.10
2022-11-28T05:37:09.036Z,63.10
2022-11-28T05:39:39.348Z,63.20
2022-11-28T05:42:09.577Z,63.00
2022-11-28T05:44:40.882Z,62.90
2022-11-28T05:47:11.269Z,62.50
2022-11-28T05:49:41.822Z,57.30
2022-11-28T05:52:12.301Z,55.80
2022-11-28T05:54:42.611Z,54.80
2022-11-28T05:57:12.808Z,54.70
2022-11-28T05:59:43.509Z,53.50
2022-11-28T06:02:13.893Z,52.30
2022-11-28T06:04:44.374Z,52.50
2022-11-28T06:07:14.673Z,51.70
2022-11-28T06:09:45.287Z,52.90
2022-11-28T06:12:16.012Z,53.60
2022-11-28T06:14:46.424Z,54.10
2022-11-28T06:17:16.711Z,54.30
2022-11-28T06:19:47.221Z,54.50
2022-11-28T06:22:17.516Z,54.70
2022-11-28T06:24:47.807Z,55.00
2022-11-28T06:27:18.117Z,55.20
2022-11-28T06:29:48.354Z,55.30
2022-11-28T06:32:22.041Z,55.50
2022-11-28T06:34:52.624Z,55.70
2022-11-28T06:37:22.755Z,55.80
2022-11-28T06:39:53.205Z,56.00
2022-11-28T06:42:23.504Z,56.00
2022-11-28T06:44:53.642Z,56.10
2022-11-28T06:47:24.000Z,56.40
2022-11-28T06:49:54.451Z,56.70
2022-11-28T06:52:24.812Z,56.80
2022-11-28T06:54:55.099Z,56.90
2022-11-28T06:57:25.714Z,57.00
2022-11-28T06:59:55.906Z,57.00
2022-11-28T07:02:27.144Z,57.00
2022-11-28T07:04:57.348Z,57.00
2022-11-28T07:07:27.812Z,57.00
2022-11-28T07:09:58.086Z,57.00
2022-11-28T07:12:28.320Z,57.00
2022-11-28T07:14:58.572Z,57.00
2022-11-28T07:17:28.962Z,57.00
2022-11-28T07:19:59.201Z,56.90
2022-11-28T07:22:29.634Z,57.10
2022-11-28T07:24:59.810Z,57.20
2022-11-28T07:27:29.999Z,57.30
2022-11-28T07:30:00.151Z,57.30
2022-11-28T07:32:30.448Z,57.40
2022-11-28T07:35:00.636Z,57.30
2022-11-28T07:37:31.208Z,57.30
2022-11-28T07:40:01.431Z,57.40
2022-11-28T07:42:31.757Z,57.30
2022-11-28T07:45:02.040Z,57.40
2022-11-28T07:47:32.474Z,57.40
2022-11-28T07:50:02.633Z,57.30
2022-11-28T07:52:33.097Z,57.60
2022-11-28T07:55:03.356Z,57.90
2022-11-28T07:57:33.723Z,58.00
2022-11-28T08:00:04.008Z,58.30
2022-11-28T08:02:34.902Z,58.50
2022-11-28T08:05:05.348Z,58.60
2022-11-28T08:07:35.796Z,58.60
2022-11-28T08:10:07.685Z,58.70
2022-11-28T08:12:38.094Z,58.80
2022-11-28T08:15:08.655Z,58.70
2022-11-28T08:17:39.949Z,58.70
2022-11-28T08:20:10.866Z,58.70
2022-11-28T08:22:41.288Z,58.70
2022-11-28T08:25:12.222Z,58.80
2022-11-28T08:27:42.776Z,58.90
2022-11-28T08:30:13.442Z,58.90
2022-11-28T08:32:43.728Z,58.90
2022-11-28T08:35:14.111Z,59.00
2022-11-28T08:37:44.848Z,59.00
2022-11-28T08:40:15.841Z,59.00
2022-11-28T08:42:47.184Z,59.00
2022-11-28T08:45:17.862Z,59.00
2022-11-28T08:47:48.091Z,59.10
2022-11-28T08:50:18.378Z,59.10
2022-11-28T08:52:48.717Z,59.20
2022-11-28T08:55:22.243Z,59.20
2022-11-28T08:58:11.203Z,59.20
2022-11-28T09:00:44.245Z,59.20
2022-11-28T09:03:19.561Z,59.20
2022-11-28T09:05:50.504Z,59.20
2022-11-28T09:08:29.641Z,59.20
2022-11-28T09:10:59.780Z,59.20
2022-11-28T09:13:30.028Z,59.30
2022-11-28T09:16:00.341Z,59.30
2022-11-28T09:18:30.919Z,59.30
2022-11-28T09:21:03.590Z,59.40
2022-11-28T09:23:34.085Z,59.40
2022-11-28T09:26:09.435Z,59.40
2022-11-28T09:28:40.080Z,59.50
2022-11-28T09:31:11.086Z,59.50
2022-11-28T09:33:41.603Z,59.50
2022-11-28T09:36:14.941Z,59.60
2022-11-28T09:39:03.057Z,59.60
2022-11-28T09:41:45.203Z,59.60
2022-11-28T09:44:39.647Z,59.60
2022-11-28T09:47:26.058Z,59.70
2022-11-28T09:50:22.519Z,59.70
2022-11-28T09:53:11.118Z,59.70
2022-11-28T09:55:58.253Z,59.60
2022-11-28T09:58:50.805Z,59.80
2022-11-28T10:01:39.899Z,59.80
2022-11-28T10:04:13.492Z,59.90
2022-11-28T10:07:10.635Z,60.00
2022-11-28T10:09:59.080Z,60.10
2022-11-28T10:12:34.535Z,60.10
2022-11-28T10:15:27.395Z,60.10
2022-11-28T10:18:21.916Z,60.10
2022-11-28T10:21:01.114Z,60.20
2022-11-28T10:23:52.783Z,60.30
2022-11-28T10:26:31.809Z,60.20
2022-11-28T10:29:07.134Z,60.10
2022-11-28T10:31:38.921Z,60.10
2022-11-28T10:34:12.201Z,60.00
2022-11-28T10:37:05.521Z,59.80
2022-11-28T10:39:37.835Z,59.20
2022-11-28T10:42:26.248Z,59.20
2022-11-28T10:45:10.970Z,58.90
2022-11-28T10:47:54.292Z,58.50
2022-11-28T10:50:32.169Z,58.60
2022-11-28T10:53:08.850Z,58.40
2022-11-28T10:55:57.203Z,58.10
2022-11-28T10:58:41.512Z,57.60
2022-11-28T11:01:12.721Z,57.30
2022-11-28T11:03:43.416Z,57.30
2022-11-28T11:06:13.888Z,57.10
2022-11-28T11:08:44.448Z,57.00
2022-11-28T11:11:30.973Z,57.00
2022-11-28T11:14:05.601Z,57.20
2022-11-28T11:16:52.534Z,57.30
2022-11-28T11:19:28.848Z,57.50
2022-11-28T11:22:21.940Z,57.60
2022-11-28T11:25:13.105Z,57.80
2022-11-28T11:28:04.581Z,57.70
2022-11-28T11:30:40.317Z,57.80
2022-11-28T11:33:19.287Z,58.00
2022-11-28T11:35:51.951Z,58.10
2022-11-28T11:38:25.270Z,58.20
2022-11-28T11:40:55.695Z,58.20
2022-11-28T11:43:39.604Z,58.30
2022-11-28T11:46:17.910Z,58.30
2022-11-28T11:48:50.452Z,58.40
2022-11-28T11:51:28.301Z,58.50
2022-11-28T11:54:16.869Z,58.60
2022-11-28T11:57:00.608Z,59.40
2022-11-28T12:00:02.583Z,58.90
2022-11-28T12:02:38.957Z,58.90
2022-11-28T12:05:22.554Z,58.90
2022-11-28T12:08:27.806Z,59.00
2022-11-28T12:11:26.845Z,59.10
2022-11-28T12:13:59.142Z,59.10
2022-11-28T12:16:44.619Z,59.20
2022-11-28T12:19:36.177Z,59.20
2022-11-28T12:22:26.367Z,59.30
2022-11-28T12:25:06.831Z,59.30
2022-11-28T12:27:43.402Z,59.30
2022-11-28T12:30:44.728Z,59.30
2022-11-28T12:33:23.809Z,59.30
2022-11-28T12:36:03.390Z,59.40
2022-11-28T12:38:57.694Z,59.40
2022-11-28T12:41:36.640Z,59.50
2022-11-28T12:44:30.972Z,59.50
2022-11-28T12:47:12.254Z,59.50
2022-11-28T12:49:59.691Z,59.60
2022-11-28T12:52:58.310Z,59.50
2022-11-28T12:55:28.875Z,59.50
2022-11-28T12:58:07.061Z,59.60
2022-11-28T13:01:07.459Z,59.70
2022-11-28T13:03:54.051Z,60.40
2022-11-28T13:06:30.714Z,59.80
2022-11-28T13:09:03.709Z,59.80
2022-11-28T13:11:48.899Z,59.80
2022-11-28T13:14:21.843Z,59.80
2022-11-28T13:17:01.071Z,59.80
2022-11-28T13:19:55.677Z,59.80
2022-11-28T13:22:53.406Z,59.80
2022-11-28T13:25:47.600Z,59.90
2022-11-28T13:28:41.344Z,59.90
2022-11-28T13:31:34.650Z,59.90
2022-11-28T13:34:05.860Z,59.90
2022-11-28T13:40:10.282Z,59.90
2022-11-28T13:43:04.412Z,59.90
2022-11-28T13:45:46.333Z,60.00
2022-11-28T13:51:34.660Z,60.00
2022-11-28T13:54:23.246Z,60.10
2022-11-28T13:57:22.275Z,60.10
2022-11-28T13:59:59.392Z,60.10
2022-11-28T14:02:51.097Z,60.20
2022-11-28T14:05:36.756Z,60.20
2022-11-28T14:08:09.344Z,60.30
2022-11-28T14:11:06.436Z,60.40
2022-11-28T14:13:51.656Z,60.30
2022-11-28T14:16:30.401Z,60.40
2022-11-28T14:19:03.477Z,60.40
2022-11-28T14:21:50.078Z,60.30
2022-11-28T14:24:47.815Z,60.40
2022-11-28T14:27:40.392Z,60.30
2022-11-28T14:30:31.879Z,60.40
2022-11-28T14:33:06.861Z,60.50
2022-11-28T14:35:54.985Z,60.50
2022-11-28T14:38:37.074Z,60.40
2022-11-28T14:41:16.570Z,60.40
2022-11-28T14:43:51.290Z,60.50
2022-11-28T14:46:35.725Z,60.50
2022-11-28T14:49:17.553Z,60.50
2022-11-28T14:52:00.068Z,60.60
2022-11-28T14:54:50.259Z,60.60
2022-11-28T14:57:22.204Z,60.60
2022-11-28T14:59:53.485Z,60.70
2022-11-28T15:02:26.770Z,60.70
2022-11-28T15:05:17.882Z,60.60
2022-11-28T15:08:08.118Z,60.70
2022-11-28T15:11:09.995Z,60.80
2022-11-28T15:13:43.004Z,60.70
2022-11-28T15:16:17.824Z,60.90
2022-11-28T15:18:57.401Z,60.90
2022-11-28T15:21:27.648Z,60.80
2022-11-28T15:23:58.245Z,60.90
2022-11-28T15:26:33.111Z,60.80
2022-11-28T15:29:20.272Z,60.80
2022-11-28T15:31:53.397Z,60.80
2022-11-28T15:34:35.642Z,60.90
2022-11-28T15:37:09.184Z,60.90
2022-11-28T15:39:43.865Z,60.90
2022-11-28T15:42:35.253Z,61.00
2022-11-28T15:45:23.984Z,60.90
2022-11-28T15:47:55.739Z,60.90
2022-11-28T15:50:31.630Z,61.00
2022-11-28T15:53:22.733Z,61.00
2022-11-28T15:56:15.370Z,61.00
2022-11-28T15:58:46.744Z,61.00
2022-11-28T16:01:28.481Z,61.10
2022-11-28T16:04:01.581Z,61.00
2022-11-28T16:06:40.676Z,61.10
2022-11-28T16:09:21.240Z,61.10
2022-11-28T16:11:55.818Z,61.10
2022-11-28T16:14:31.904Z,61.20
2022-11-28T16:17:05.316Z,61.10
2022-11-28T16:19:38.999Z,61.10
2022-11-28T16:22:12.451Z,61.20
2022-11-28T16:24:49.235Z,61.10
2022-11-28T16:27:47.307Z,61.20
2022-11-28T16:30:26.595Z,61.10
2022-11-28T16:32:58.203Z,61.20
2022-11-28T16:35:43.253Z,61.30
2022-11-28T16:38:31.874Z,61.20
2022-11-28T16:41:04.983Z,61.20
2022-11-28T16:43:42.871Z,61.40
2022-11-28T16:46:32.494Z,61.30
2022-11-28T16:49:03.461Z,61.40
2022-11-28T16:51:39.092Z,61.40
2022-11-28T16:54:26.755Z,61.40
2022-11-28T16:57:10.773Z,61.30
2022-11-28T16:59:41.621Z,61.40
2022-11-28T17:02:23.962Z,61.50
2022-11-28T17:04:56.015Z,61.50
2022-11-28T17:07:27.575Z,61.50
2022-11-28T17:09:57.934Z,61.60
2022-11-28T17:12:46.078Z,61.60
2022-11-28T17:15:25.320Z,61.50
2022-11-28T17:17:57.431Z,61.70
2022-11-28T17:20:28.416Z,61.70
2022-11-28T17:23:00.759Z,61.70
2022-11-28T17:25:31.045Z,61.70
2022-11-28T17:28:01.492Z,61.80
2022-11-28T17:30:31.863Z,61.80
2022-11-28T17:33:03.575Z,61.80
2022-11-28T17:35:41.935Z,61.80
2022-11-28T17:38:12.359Z,61.70
2022-11-28T17:40:43.944Z,61.80
2022-11-28T17:43:23.267Z,61.90
2022-11-28T17:45:53.614Z,61.80
2022-11-28T17:48:23.959Z,61.90
2022-11-28T17:50:55.078Z,61.90
2022-11-28T17:53:25.337Z,61.90
2022-11-28T17:56:00.763Z,62.00
2022-11-28T17:58:31.267Z,61.90
2022-11-28T18:01:01.849Z,62.00
2022-11-28T18:03:32.189Z,62.00
2022-11-28T18:06:02.373Z,62.00
2022-11-28T18:08:32.584Z,62.10
2022-11-28T18:11:11.391Z,62.10
2022-11-28T18:13:44.000Z,62.20
2022-11-28T18:16:16.835Z,62.10
2022-11-28T18:18:47.511Z,62.10
2022-11-28T18:21:18.868Z,62.10
2022-11-28T18:23:54.143Z,62.10
2022-11-28T18:26:26.697Z,62.10
2022-11-28T18:28:57.793Z,62.20
2022-11-28T18:31:30.604Z,62.20
2022-11-28T18:34:04.133Z,62.20
2022-11-28T18:36:36.437Z,62.20
2022-11-28T18:39:18.746Z,62.10
2022-11-28T18:41:49.253Z,62.10
2022-11-28T18:44:19.454Z,62.20
2022-11-28T18:46:49.660Z,62.20
2022-11-28T18:49:21.347Z,62.20
2022-11-28T18:51:51.633Z,62.20
2022-11-28T18:54:21.875Z,62.20
2022-11-28T18:56:52.374Z,62.20
2022-11-28T18:59:23.113Z,62.30
2022-11-28T19:01:53.613Z,62.20
2022-11-28T19:04:24.156Z,62.20
2022-11-28T19:06:55.408Z,62.30
2022-11-28T19:09:25.944Z,62.30
2022-11-28T19:11:57.153Z,62.50
2022-11-28T19:14:27.394Z,62.50
2022-11-28T19:16:58.666Z,62.50
2022-11-28T19:19:29.157Z,62.40
2022-11-28T19:21:59.482Z,62.50
2022-11-28T19:24:29.796Z,62.50
2022-11-28T19:27:00.071Z,62.50
2022-11-28T19:29:30.446Z,62.40
2022-11-28T19:32:00.875Z,62.50
2022-11-28T19:34:31.341Z,62.90
2022-11-28T19:37:01.506Z,62.50
2022-11-28T19:39:31.987Z,62.50
2022-11-28T19:42:02.275Z,62.50
2022-11-28T19:44:33.012Z,62.50
2022-11-28T19:47:03.214Z,62.70
2022-11-28T19:49:34.071Z,62.60
2022-11-28T19:52:04.350Z,62.60
2022-11-28T19:54:35.961Z,62.70
2022-11-28T19:57:06.579Z,62.60
2022-11-28T19:59:36.877Z,62.60
2022-11-28T20:02:07.776Z,62.60
2022-11-28T20:04:38.139Z,62.60
2022-11-28T20:07:08.896Z,62.70
2022-11-28T20:09:39.116Z,62.70
2022-11-28T20:12:09.441Z,62.70
2022-11-28T20:14:39.692Z,62.70
2022-11-28T20:17:09.947Z,62.70
2022-11-28T20:19:40.179Z,62.80
2022-11-28T20:22:10.383Z,62.80
2022-11-28T20:24:40.578Z,63.00
2022-11-28T20:27:10.779Z,63.00
2022-11-28T20:29:41.015Z,62.90
2022-11-28T20:32:11.562Z,63.00
2022-11-28T20:34:41.768Z,63.10
2022-11-28T20:37:12.110Z,63.10
2022-11-28T20:39:42.785Z,63.10
2022-11-28T20:42:13.436Z,63.10
2022-11-28T20:44:43.717Z,63.20
2022-11-28T20:47:15.769Z,63.10
2022-11-28T20:49:46.302Z,63.10
2022-11-28T20:52:16.747Z,63.20
2022-11-28T20:54:46.986Z,63.10
2022-11-28T20:57:21.663Z,63.10
2022-11-28T20:59:52.740Z,63.10
2022-11-28T21:02:23.015Z,63.10
2022-11-28T21:04:53.420Z,63.20
2022-11-28T21:07:24.582Z,62.90
2022-11-28T21:10:01.516Z,62.90
2022-11-28T21:12:31.802Z,62.80
2022-11-28T21:15:03.616Z,63.00
2022-11-28T21:17:34.500Z,63.20
2022-11-28T21:20:04.784Z,63.20
2022-11-28T21:22:35.660Z,63.20
2022-11-28T21:25:06.138Z,63.30
2022-11-28T21:27:39.346Z,63.40
2022-11-28T21:30:10.902Z,63.60
2022-11-28T21:32:41.666Z,63.80
2022-11-28T21:35:12.109Z,63.90
2022-11-28T21:37:42.491Z,64.20
2022-11-28T21:40:13.321Z,64.20
2022-11-28T21:42:43.608Z,64.20
2022-11-28T21:45:14.038Z,64.30
2022-11-28T21:47:44.524Z,64.20
2022-11-28T21:50:15.449Z,64.30
2022-11-28T21:52:45.670Z,64.20
2022-11-28T21:55:15.851Z,64.30
2022-11-28T21:57:46.198Z,64.30
2022-11-28T22:00:38.676Z,64.30
2022-11-28T22:03:13.882Z,64.30
2022-11-28T22:05:44.639Z,64.10
2022-11-28T22:08:15.290Z,64.10
2022-11-28T22:10:45.513Z,64.00
2022-11-28T22:13:15.744Z,64.00
2022-11-28T22:15:46.166Z,64.00
2022-11-28T22:18:16.351Z,64.00
2022-11-28T22:20:50.198Z,63.90
2022-11-28T22:23:23.143Z,63.90
2022-11-28T22:25:54.481Z,63.90
2022-11-28T22:28:24.914Z,63.90
2022-11-28T22:30:55.180Z,63.80
2022-11-28T22:33:25.508Z,63.80
2022-11-28T22:35:55.708Z,63.70
2022-11-28T22:38:25.958Z,63.60
2022-11-28T22:41:24.853Z,63.60
2022-11-28T22:44:16.864Z,63.60
2022-11-28T22:46:47.241Z,64.40
2022-11-28T22:49:17.722Z,63.50
2022-11-28T22:51:48.106Z,63.50
2022-11-28T22:54:18.467Z,63.50
2022-11-28T22:56:48.782Z,63.50
2022-11-28T22:59:19.380Z,63.40
2022-11-28T23:01:49.759Z,63.30
2022-11-28T23:04:20.356Z,63.30
2022-11-28T23:06:50.735Z,63.20
2022-11-28T23:09:21.132Z,63.20
2022-11-28T23:11:51.403Z,63.10
2022-11-28T23:14:22.812Z,63.10
2022-11-28T23:16:53.134Z,63.10
2022-11-28T23:19:23.642Z,63.00
2022-11-28T23:21:53.971Z,63.00
2022-11-28T23:24:25.627Z,63.00
2022-11-28T23:26:56.587Z,63.00
2022-11-28T23:29:26.884Z,63.00
2022-11-28T23:31:57.165Z,63.00
2022-11-28T23:34:27.500Z,63.00
2022-11-28T23:36:57.684Z,62.90
2022-11-28T23:39:28.051Z,62.90
2022-11-28T23:42:00.575Z,62.80
2022-11-28T23:44:31.459Z,62.80
2022-11-28T23:47:02.030Z,62.90
2022-11-28T23:49:32.456Z,62.80
2022-11-28T23:52:02.807Z,62.90
2022-11-28T23:54:33.204Z,62.90
2022-11-28T23:57:03.572Z,62.90
2022-11-28T23:59:33.907Z,62.90
